createdAt,value
2023-01-21T00:01:37.354Z,8.45
2023-01-21T00:04:05.006Z,6.50
2023-01-21T00:06:32.619Z,7.50
2023-01-21T00:09:02.429Z,6.57
2023-01-21T00:11:30.159Z,6.30
2023-01-21T00:14:01.331Z,6.18
2023-01-21T00:16:28.861Z,7.03
2023-01-21T00:18:56.942Z,7.82
2023-01-21T00:21:24.569Z,8.00
2023-01-21T00:23:52.175Z,6.75
2023-01-21T00:26:19.820Z,6.65
2023-01-21T00:28:48.415Z,7.68
2023-01-21T00:31:17.514Z,7.35
2023-01-21T00:33:45.409Z,6.00
2023-01-21T00:36:18.259Z,8.10
2023-01-21T00:38:49.150Z,8.20
2023-01-21T00:41:17.225Z,9.32
2023-01-21T00:43:45.114Z,8.50
2023-01-21T00:46:12.897Z,6.60
2023-01-21T00:48:41.849Z,8.02
2023-01-21T00:51:09.965Z,7.70
2023-01-21T00:53:41.678Z,7.10
2023-01-21T00:56:11.654Z,6.97
2023-01-21T00:58:39.716Z,8.50
2023-01-21T01:01:09.925Z,7.22
2023-01-21T01:03:39.221Z,7.53
2023-01-21T01:06:10.344Z,7.40
2023-01-21T01:08:37.934Z,8.45
2023-01-21T01:11:06.061Z,9.63
2023-01-21T01:13:34.636Z,8.55
2023-01-21T01:16:02.664Z,10.85
2023-01-21T01:18:32.459Z,8.63
2023-01-21T01:21:00.548Z,9.43
2023-01-21T01:23:30.113Z,7.63
2023-01-21T01:25:59.517Z,8.55
2023-01-21T01:28:27.627Z,9.48
2023-01-21T01:30:55.721Z,8.18
2023-01-21T01:33:23.892Z,9.30
2023-01-21T01:35:51.830Z,9.52
2023-01-21T01:38:21.947Z,7.88
2023-01-21T01:40:53.636Z,9.90
2023-01-21T01:43:24.545Z,7.38
2023-01-21T01:45:52.695Z,7.30
2023-01-21T01:48:24.875Z,8.20
2023-01-21T01:50:52.786Z,10.32
2023-01-21T01:53:20.765Z,7.80
2023-01-21T01:55:51.098Z,10.35
2023-01-21T01:58:21.825Z,10.00
2023-01-21T02:00:49.736Z,7.18
2023-01-21T02:03:36.196Z,9.45
2023-01-21T02:06:04.343Z,7.28
2023-01-21T02:08:34.362Z,10.85
2023-01-21T02:11:03.365Z,8.65
2023-01-21T02:13:33.164Z,9.70
2023-01-21T02:16:14.470Z,8.05
2023-01-21T02:18:50.475Z,9.30
2023-01-21T02:21:53.453Z,7.53
2023-01-21T02:25:00.616Z,8.10
2023-01-21T02:27:42.865Z,6.38
2023-01-21T02:30:42.372Z,7.43
2023-01-21T02:33:32.866Z,7.35
2023-01-21T02:36:13.424Z,7.90
2023-01-21T02:38:47.651Z,8.27
2023-01-21T02:41:24.163Z,6.75
2023-01-21T02:43:58.221Z,9.10
2023-01-21T02:46:32.376Z,8.23
2023-01-21T02:49:05.644Z,6.43
2023-01-21T02:54:00.919Z,8.27
2023-01-21T02:56:28.728Z,6.97
2023-01-21T02:59:00.542Z,7.05
2023-01-21T03:01:49.345Z,8.70
2023-01-21T03:04:45.695Z,7.88
2023-01-21T03:07:20.336Z,9.23
2023-01-21T03:09:47.891Z,7.43
2023-01-21T03:12:31.813Z,7.25
2023-01-21T03:15:22.828Z,7.53
2023-01-21T03:17:58.492Z,6.68
2023-01-21T03:20:31.575Z,6.97
2023-01-21T03:23:03.820Z,5.78
2023-01-21T03:25:34.203Z,7.38
2023-01-21T03:28:05.877Z,8.25
2023-01-21T03:30:36.198Z,7.43
2023-01-21T03:33:05.094Z,11.07
2023-01-21T03:35:38.563Z,9.68
2023-01-21T03:38:12.869Z,9.82
2023-01-21T03:40:44.252Z,10.05
2023-01-21T03:43:11.998Z,8.98
2023-01-21T03:45:47.328Z,7.93
2023-01-21T03:48:20.054Z,9.68
2023-01-21T03:50:56.275Z,7.82
2023-01-21T03:53:24.206Z,8.30
2023-01-21T03:55:52.681Z,9.48
2023-01-21T03:58:20.432Z,8.70
2023-01-21T04:00:49.154Z,10.68
2023-01-21T04:03:16.738Z,7.47
2023-01-21T04:05:44.466Z,8.93
2023-01-21T04:08:13.421Z,8.63
2023-01-21T04:10:40.982Z,7.70
2023-01-21T04:13:08.598Z,8.93
2023-01-21T04:15:36.171Z,7.22
2023-01-21T04:18:03.748Z,7.90
2023-01-21T04:20:31.312Z,15.00
2023-01-21T04:22:58.951Z,16.92
2023-01-21T04:25:28.082Z,8.55
2023-01-21T04:27:55.691Z,8.50
2023-01-21T04:30:23.260Z,9.88
2023-01-21T04:32:50.822Z,5.68
2023-01-21T04:35:18.372Z,7.47
2023-01-21T04:37:45.959Z,7.60
2023-01-21T04:40:13.814Z,8.63
2023-01-21T04:42:57.751Z,8.38
2023-01-21T04:45:25.332Z,6.80
2023-01-21T04:47:52.857Z,9.52
2023-01-21T04:50:20.590Z,8.90
2023-01-21T04:52:48.143Z,8.80
2023-01-21T04:55:15.919Z,8.05
2023-01-21T04:57:44.827Z,6.38
2023-01-21T05:00:13.342Z,9.25
2023-01-21T05:02:40.932Z,8.00
2023-01-21T05:05:09.197Z,7.13
2023-01-21T05:07:36.830Z,8.32
2023-01-21T05:10:05.186Z,7.28
2023-01-21T05:12:32.753Z,9.38
2023-01-21T05:15:01.602Z,6.95
2023-01-21T05:17:29.148Z,8.35
2023-01-21T05:19:56.642Z,24.80
2023-01-21T05:22:24.164Z,12.88
2023-01-21T05:24:51.707Z,8.52
2023-01-21T05:27:19.883Z,10.82
2023-01-21T05:29:47.454Z,8.48
2023-01-21T05:32:16.389Z,9.02
2023-01-21T05:34:43.920Z,11.70
2023-01-21T05:37:11.671Z,11.77
2023-01-21T05:39:39.365Z,12.40
2023-01-21T05:42:06.995Z,11.95
2023-01-21T05:44:34.608Z,11.70
2023-01-21T05:47:02.144Z,15.48
2023-01-21T05:49:31.051Z,18.65
2023-01-21T05:51:58.591Z,18.50
2023-01-21T05:54:26.154Z,21.50
2023-01-21T05:56:53.882Z,19.92
2023-01-21T05:59:21.454Z,22.02
2023-01-21T06:01:48.971Z,29.10
2023-01-21T06:04:16.511Z,23.58
2023-01-21T06:06:45.462Z,24.52
2023-01-21T06:09:12.983Z,21.80
2023-01-21T06:11:42.028Z,25.35
2023-01-21T06:14:09.726Z,25.33
2023-01-21T06:16:37.301Z,24.15
2023-01-21T06:19:04.876Z,23.30
2023-01-21T06:21:32.474Z,23.38
2023-01-21T06:24:02.463Z,21.67
2023-01-21T06:26:33.997Z,29.60
2023-01-21T06:29:01.904Z,23.42
2023-01-21T06:31:29.533Z,23.67
2023-01-21T06:33:57.317Z,21.33
2023-01-21T06:36:24.830Z,22.33
2023-01-21T06:38:52.471Z,25.17
2023-01-21T06:41:21.418Z,21.00
2023-01-21T06:43:48.920Z,19.35
2023-01-21T06:46:16.621Z,20.58
2023-01-21T06:48:44.213Z,18.13
2023-01-21T06:51:11.845Z,22.02
2023-01-21T06:53:39.443Z,18.20
2023-01-21T06:56:07.504Z,17.27
2023-01-21T06:58:36.471Z,15.40
2023-01-21T07:01:04.112Z,17.50
2023-01-21T07:03:31.749Z,18.58
2023-01-21T07:05:59.306Z,17.98
2023-01-21T07:08:26.943Z,17.17
2023-01-21T07:10:54.516Z,20.20
2023-01-21T07:13:22.069Z,17.08
2023-01-21T07:15:51.033Z,17.55
2023-01-21T07:18:18.577Z,19.52
2023-01-21T07:20:46.152Z,19.33
2023-01-21T07:23:13.714Z,50.78
2023-01-21T07:25:41.241Z,39.58
2023-01-21T07:28:08.828Z,21.00
2023-01-21T07:30:37.447Z,15.70
2023-01-21T07:33:07.715Z,15.32
2023-01-21T07:35:35.541Z,14.35
2023-01-21T07:38:03.246Z,14.55
2023-01-21T07:40:30.776Z,17.90
2023-01-21T07:42:58.431Z,15.43
2023-01-21T07:45:26.263Z,14.90
2023-01-21T07:47:53.816Z,14.35
2023-01-21T07:50:22.765Z,15.52
2023-01-21T07:55:33.084Z,14.35
2023-01-21T07:58:00.799Z,13.60
2023-01-21T08:00:29.161Z,16.65
2023-01-21T08:02:57.328Z,15.10
2023-01-21T08:05:27.100Z,15.40
2023-01-21T08:07:58.358Z,14.55
2023-01-21T08:10:26.823Z,23.90
2023-01-21T08:12:54.457Z,18.30
2023-01-21T08:15:22.016Z,47.42
2023-01-21T08:17:50.492Z,38.42
2023-01-21T08:20:18.251Z,38.40
2023-01-21T08:22:47.178Z,18.38
2023-01-21T08:25:15.001Z,15.18
2023-01-21T08:27:42.685Z,15.52
2023-01-21T08:30:11.492Z,15.55
2023-01-21T08:32:39.231Z,17.35
2023-01-21T08:35:08.189Z,22.48
2023-01-21T08:37:35.760Z,16.77
2023-01-21T08:40:05.074Z,14.93
2023-01-21T08:42:32.734Z,14.63
2023-01-21T08:45:00.349Z,12.18
2023-01-21T08:47:28.005Z,13.45
2023-01-21T08:49:55.631Z,14.43
2023-01-21T08:52:23.381Z,13.27
2023-01-21T08:54:50.983Z,13.30
2023-01-21T08:57:19.986Z,12.85
2023-01-21T08:59:47.649Z,13.45
2023-01-21T09:02:15.249Z,15.43
2023-01-21T09:04:42.922Z,12.57
2023-01-21T09:07:10.564Z,11.57
2023-01-21T09:09:38.137Z,13.85
2023-01-21T09:12:06.878Z,12.20
2023-01-21T09:14:35.767Z,12.32
2023-01-21T09:17:03.334Z,14.10
2023-01-21T09:19:30.940Z,11.43
2023-01-21T09:21:58.556Z,13.73
2023-01-21T09:24:26.366Z,15.60
2023-01-21T09:26:53.948Z,15.35
2023-01-21T09:29:21.598Z,15.45
2023-01-21T09:31:50.541Z,16.88
2023-01-21T09:34:18.144Z,15.15
2023-01-21T09:36:45.705Z,13.30
2023-01-21T09:39:13.253Z,13.30
2023-01-21T09:41:44.276Z,12.95
2023-01-21T09:44:20.317Z,13.20
2023-01-21T09:46:53.868Z,14.43
2023-01-21T09:49:25.407Z,12.73
2023-01-21T09:52:00.327Z,15.25
2023-01-21T09:54:30.278Z,13.07
2023-01-21T09:57:30.859Z,11.63
2023-01-21T10:00:08.942Z,10.95
2023-01-21T10:02:50.044Z,12.95
2023-01-21T10:05:40.996Z,14.48
2023-01-21T10:08:17.478Z,13.13
2023-01-21T10:10:50.295Z,14.05
2023-01-21T10:13:42.118Z,15.80
2023-01-21T10:16:16.125Z,14.30
2023-01-21T10:18:48.264Z,17.48
2023-01-21T10:21:22.151Z,16.13
2023-01-21T10:23:53.259Z,13.65
2023-01-21T10:26:20.945Z,12.98
2023-01-21T10:28:51.592Z,13.50
2023-01-21T10:31:22.951Z,18.92
2023-01-21T10:33:52.517Z,12.50
2023-01-21T10:36:51.503Z,12.10
2023-01-21T10:39:29.836Z,14.57
2023-01-21T10:42:19.537Z,13.32
2023-01-21T10:44:53.919Z,13.80
2023-01-21T10:47:31.203Z,19.65
2023-01-21T10:50:05.210Z,14.57
2023-01-21T10:52:41.985Z,16.73
2023-01-21T10:55:27.826Z,14.85
2023-01-21T10:57:59.753Z,14.80
2023-01-21T11:00:30.218Z,13.77
2023-01-21T11:03:02.502Z,15.13
2023-01-21T11:05:32.100Z,15.32
2023-01-21T11:08:00.384Z,16.02
2023-01-21T11:10:29.054Z,16.63
2023-01-21T11:12:57.266Z,16.55
2023-01-21T11:15:25.227Z,14.80
2023-01-21T11:17:56.349Z,18.13
2023-01-21T11:20:30.264Z,13.82
2023-01-21T11:22:59.321Z,14.77
2023-01-21T11:25:32.203Z,14.07
2023-01-21T11:27:59.844Z,13.75
2023-01-21T11:30:49.436Z,17.52
2023-01-21T11:33:26.888Z,15.85
2023-01-21T11:35:56.108Z,18.92
2023-01-21T11:38:33.064Z,16.30
2023-01-21T11:41:05.216Z,25.52
2023-01-21T11:43:35.371Z,17.17
2023-01-21T11:46:22.728Z,15.95
2023-01-21T11:48:50.656Z,15.57
2023-01-21T11:51:18.673Z,15.70
2023-01-21T11:53:47.612Z,17.95
2023-01-21T11:56:16.944Z,15.32
2023-01-21T11:58:44.557Z,14.45
2023-01-21T12:01:21.118Z,17.88
2023-01-21T12:03:53.067Z,14.52
2023-01-21T12:06:23.444Z,14.55
2023-01-21T12:08:54.358Z,15.90
2023-01-21T12:11:25.895Z,15.32
2023-01-21T12:14:02.231Z,13.18
2023-01-21T12:16:35.242Z,15.95
2023-01-21T12:19:25.066Z,16.17
2023-01-21T12:22:15.546Z,16.60
2023-01-21T12:25:03.650Z,18.15
2023-01-21T12:27:36.548Z,17.45
2023-01-21T12:30:13.039Z,20.25
2023-01-21T12:32:45.713Z,19.85
2023-01-21T12:35:19.009Z,17.77
2023-01-21T12:37:52.244Z,17.35
2023-01-21T12:40:29.848Z,18.48
2023-01-21T12:43:01.467Z,20.02
2023-01-21T12:45:36.229Z,18.20
2023-01-21T12:48:11.005Z,19.42
2023-01-21T12:50:43.691Z,17.77
2023-01-21T12:53:20.845Z,21.15
2023-01-21T12:56:08.043Z,21.50
2023-01-21T12:58:40.157Z,20.42
2023-01-21T13:01:12.048Z,19.88
2023-01-21T13:03:51.335Z,22.67
2023-01-21T13:06:29.576Z,24.67
2023-01-21T13:09:09.383Z,18.95
2023-01-21T13:11:45.323Z,20.45
2023-01-21T13:14:24.254Z,22.00
2023-01-21T13:16:58.603Z,19.00
2023-01-21T13:19:26.282Z,21.45
2023-01-21T13:22:02.391Z,25.58
2023-01-21T13:24:34.233Z,26.00
2023-01-21T13:27:12.966Z,22.08
2023-01-21T13:29:47.967Z,21.25
2023-01-21T13:32:26.258Z,20.88
2023-01-21T13:35:06.552Z,23.15
2023-01-21T13:37:40.461Z,22.90
2023-01-21T13:40:26.627Z,23.13
2023-01-21T13:43:07.570Z,19.55
2023-01-21T13:45:50.470Z,20.25
2023-01-21T13:48:29.215Z,21.65
2023-01-21T13:51:16.133Z,22.35
2023-01-21T13:54:00.554Z,19.80
2023-01-21T13:56:43.589Z,23.35
2023-01-21T13:59:17.890Z,24.05
2023-01-21T14:01:51.319Z,22.70
2023-01-21T14:04:26.891Z,21.00
2023-01-21T14:07:01.765Z,22.70
2023-01-21T14:09:37.173Z,20.92
2023-01-21T14:12:11.976Z,20.50
2023-01-21T14:15:15.879Z,23.98
2023-01-21T14:18:07.799Z,21.98
2023-01-21T14:21:02.039Z,19.13
2023-01-21T14:23:42.917Z,20.45
2023-01-21T14:26:20.485Z,21.80
2023-01-21T14:29:01.559Z,21.25
2023-01-21T14:31:36.625Z,21.95
2023-01-21T14:34:16.012Z,20.63
2023-01-21T14:36:52.673Z,20.95
2023-01-21T14:39:34.772Z,18.42
2023-01-21T14:42:10.711Z,20.20
2023-01-21T14:44:41.537Z,22.77
2023-01-21T14:47:22.701Z,19.52
2023-01-21T14:49:53.947Z,20.80
2023-01-21T14:52:28.823Z,25.52
2023-01-21T14:54:56.506Z,17.73
2023-01-21T14:57:28.935Z,20.10
2023-01-21T15:00:05.963Z,19.42
2023-01-21T15:02:41.306Z,17.90
2023-01-21T15:05:24.846Z,18.70
2023-01-21T15:08:05.459Z,19.15
2023-01-21T15:10:36.035Z,17.98
2023-01-21T15:13:07.383Z,18.95
2023-01-21T15:15:40.815Z,18.00
2023-01-21T15:18:26.281Z,19.33
2023-01-21T15:20:58.101Z,18.88
2023-01-21T15:23:37.874Z,17.40
2023-01-21T15:26:19.167Z,18.10
2023-01-21T15:28:47.492Z,20.65
2023-01-21T15:31:41.088Z,20.13
2023-01-21T15:36:47.732Z,20.80
2023-01-21T15:39:17.704Z,17.55
2023-01-21T15:41:57.841Z,15.10
2023-01-21T15:44:49.144Z,17.50
2023-01-21T15:47:41.038Z,16.90
2023-01-21T15:50:20.965Z,17.02
2023-01-21T15:53:03.388Z,19.20
2023-01-21T15:55:41.721Z,16.23
2023-01-21T15:58:21.616Z,17.95
2023-01-21T16:00:55.172Z,18.85
2023-01-21T16:03:28.443Z,19.90
2023-01-21T16:06:03.785Z,15.55
2023-01-21T16:08:48.289Z,15.98
2023-01-21T16:11:40.351Z,17.20
2023-01-21T16:14:24.217Z,16.83
2023-01-21T16:17:02.548Z,17.38
2023-01-21T16:19:34.732Z,21.58
2023-01-21T16:22:07.441Z,18.67
2023-01-21T16:24:41.407Z,45.25
2023-01-21T16:27:19.763Z,22.10
2023-01-21T16:29:47.391Z,22.17
2023-01-21T16:32:19.938Z,17.27
2023-01-21T16:34:47.892Z,16.73
2023-01-21T16:37:18.951Z,16.50
2023-01-21T16:39:47.988Z,18.23
2023-01-21T16:42:25.777Z,23.17
2023-01-21T16:44:56.526Z,20.05
2023-01-21T16:47:27.075Z,17.35
2023-01-21T16:49:54.703Z,18.92
2023-01-21T16:52:24.413Z,16.23
2023-01-21T16:54:55.252Z,19.13
2023-01-21T16:57:28.740Z,23.60
2023-01-21T16:59:57.929Z,26.88
2023-01-21T17:02:28.645Z,35.30
2023-01-21T17:04:58.398Z,37.83
2023-01-21T17:07:29.473Z,26.45
2023-01-21T17:10:01.626Z,26.02
2023-01-21T17:12:31.525Z,22.83
2023-01-21T17:15:02.450Z,30.83
2023-01-21T17:17:31.976Z,25.77
2023-01-21T17:20:00.217Z,43.35
2023-01-21T17:22:31.895Z,40.05
2023-01-21T17:25:07.316Z,34.85
2023-01-21T17:27:37.695Z,23.65
2023-01-21T17:30:26.211Z,28.00
2023-01-21T17:32:55.418Z,22.27
2023-01-21T17:35:25.512Z,21.42
2023-01-21T17:37:55.252Z,18.05
2023-01-21T17:40:29.819Z,22.80
2023-01-21T17:42:58.871Z,16.30
2023-01-21T17:45:32.874Z,18.98
2023-01-21T17:48:12.438Z,18.13
2023-01-21T17:50:47.173Z,19.90
2023-01-21T17:53:22.820Z,15.50
2023-01-21T17:56:01.098Z,14.27
2023-01-21T17:58:47.068Z,20.67
2023-01-21T18:01:15.429Z,16.42
2023-01-21T18:03:43.234Z,14.27
2023-01-21T18:06:18.271Z,18.05
2023-01-21T18:08:45.913Z,15.60
2023-01-21T18:11:18.010Z,18.63
2023-01-21T18:13:45.558Z,14.90
2023-01-21T18:16:13.442Z,15.63
2023-01-21T18:18:41.900Z,15.05
2023-01-21T18:21:18.278Z,15.93
2023-01-21T18:23:45.902Z,13.93
2023-01-21T18:26:21.300Z,13.80
2023-01-21T18:28:48.894Z,13.68
2023-01-21T18:31:16.570Z,14.80
2023-01-21T18:33:44.305Z,15.00
2023-01-21T18:36:12.528Z,14.52
2023-01-21T18:38:40.210Z,14.45
2023-01-21T18:41:09.083Z,14.68
2023-01-21T18:43:37.993Z,13.65
2023-01-21T18:46:12.090Z,14.77
2023-01-21T18:48:39.644Z,16.85
2023-01-21T18:51:07.290Z,16.02
2023-01-21T18:53:34.861Z,27.30
2023-01-21T18:56:04.967Z,22.15
2023-01-21T18:58:32.911Z,18.10
2023-01-21T19:01:10.814Z,14.32
2023-01-21T19:03:43.312Z,19.70
2023-01-21T19:06:16.728Z,24.25
2023-01-21T19:08:48.393Z,18.88
2023-01-21T19:11:16.291Z,18.63
2023-01-21T19:13:43.863Z,20.30
2023-01-21T19:16:16.704Z,23.20
2023-01-21T19:18:44.529Z,15.77
2023-01-21T19:21:12.757Z,17.80
2023-01-21T19:23:40.971Z,16.90
2023-01-21T19:26:12.937Z,18.40
2023-01-21T19:28:40.557Z,17.60
2023-01-21T19:31:08.305Z,16.23
2023-01-21T19:33:37.323Z,16.40
2023-01-21T19:36:14.822Z,17.13
2023-01-21T19:38:44.157Z,15.65
2023-01-21T19:41:11.963Z,18.48
2023-01-21T19:43:41.059Z,22.52
2023-01-21T19:46:11.790Z,20.23
2023-01-21T19:48:41.464Z,24.35
2023-01-21T19:51:09.126Z,19.10
2023-01-21T19:53:37.431Z,19.85
2023-01-21T19:56:06.055Z,19.92
2023-01-21T19:58:36.112Z,17.35
2023-01-21T20:01:03.869Z,15.65
2023-01-21T20:03:31.529Z,19.52
2023-01-21T20:06:03.026Z,21.45
2023-01-21T20:08:33.060Z,19.35
2023-01-21T20:11:00.667Z,20.00
2023-01-21T20:13:32.189Z,17.55
2023-01-21T20:16:02.527Z,17.10
2023-01-21T20:18:32.479Z,16.58
2023-01-21T20:21:01.441Z,18.02
2023-01-21T20:23:30.974Z,16.38
2023-01-21T20:26:00.067Z,17.77
2023-01-21T20:28:30.982Z,19.80
2023-01-21T20:31:02.443Z,21.02
2023-01-21T20:33:30.048Z,15.15
2023-01-21T20:35:57.782Z,15.40
2023-01-21T20:38:30.058Z,17.63
2023-01-21T20:40:57.932Z,15.52
2023-01-21T20:43:25.448Z,16.15
2023-01-21T20:45:53.720Z,17.67
2023-01-21T20:48:26.019Z,17.00
2023-01-21T20:50:54.020Z,17.10
2023-01-21T20:53:21.936Z,17.60
2023-01-21T20:55:52.118Z,19.40
2023-01-21T20:58:21.891Z,18.02
2023-01-21T21:00:50.110Z,17.52
2023-01-21T21:03:19.159Z,17.75
2023-01-21T21:05:48.109Z,19.77
2023-01-21T21:08:18.024Z,19.92
2023-01-21T21:10:46.480Z,19.88
2023-01-21T21:13:15.765Z,17.55
2023-01-21T21:15:46.427Z,18.38
2023-01-21T21:18:14.435Z,19.63
2023-01-21T21:20:44.043Z,16.40
2023-01-21T21:23:14.020Z,17.27
2023-01-21T21:25:43.486Z,17.00
2023-01-21T21:28:11.575Z,18.67
2023-01-21T21:30:40.936Z,18.02
2023-01-21T21:33:15.389Z,16.05
2023-01-21T21:35:44.625Z,15.65
2023-01-21T21:38:15.135Z,16.67
2023-01-21T21:40:45.360Z,17.08
2023-01-21T21:43:43.960Z,19.10
2023-01-21T21:46:36.373Z,20.27
2023-01-21T21:49:04.642Z,18.25
2023-01-21T21:51:36.452Z,17.90
2023-01-21T21:54:05.737Z,16.17
2023-01-21T21:56:33.623Z,17.33
2023-01-21T21:59:10.518Z,15.88
2023-01-21T22:01:41.687Z,19.58
2023-01-21T22:04:09.860Z,18.45
2023-01-21T22:06:37.731Z,17.50
2023-01-21T22:09:06.018Z,17.90
2023-01-21T22:14:41.268Z,18.13
2023-01-21T22:17:13.327Z,19.05
2023-01-21T22:19:47.251Z,17.42
2023-01-21T22:22:15.137Z,17.13
2023-01-21T22:24:43.953Z,19.45
2023-01-21T22:27:13.194Z,19.77
2023-01-21T22:29:42.273Z,16.50
2023-01-21T22:32:10.172Z,17.73
2023-01-21T22:34:41.630Z,19.58
2023-01-21T22:37:16.151Z,16.08
2023-01-21T22:39:43.796Z,17.60
2023-01-21T22:42:19.729Z,17.17
2023-01-21T22:45:07.241Z,15.05
2023-01-21T22:47:35.723Z,19.33
2023-01-21T22:50:03.573Z,15.65
2023-01-21T22:52:31.228Z,14.35
2023-01-21T22:55:00.872Z,14.00
2023-01-21T22:57:28.520Z,17.65
2023-01-21T22:59:57.528Z,14.10
2023-01-21T23:02:25.540Z,14.60
2023-01-21T23:04:53.310Z,15.65
2023-01-21T23:07:21.021Z,13.85
2023-01-21T23:09:48.669Z,14.25
2023-01-21T23:12:19.479Z,15.73
2023-01-21T23:14:47.530Z,18.13
2023-01-21T23:17:17.525Z,19.25
2023-01-21T23:19:45.173Z,19.10
2023-01-21T23:22:12.789Z,16.67
2023-01-21T23:24:40.352Z,16.38
2023-01-21T23:27:07.917Z,15.95
2023-01-21T23:29:35.528Z,15.27
2023-01-21T23:32:03.268Z,12.57
2023-01-21T23:34:32.410Z,13.73
2023-01-21T23:36:59.980Z,12.13
2023-01-21T23:39:27.603Z,10.93
2023-01-21T23:41:55.818Z,11.25
2023-01-21T23:44:25.326Z,14.80
2023-01-21T23:46:52.973Z,12.45
2023-01-21T23:49:20.850Z,12.40
2023-01-21T23:51:49.926Z,12.07
2023-01-21T23:54:17.507Z,13.38
2023-01-21T23:56:45.276Z,10.75
2023-01-21T23:59:12.873Z,12.63
